Time;durP1;ratioP1;P1;durP2;ratioP2;P2;SDS_P1;SDS_P2;PMS_P1;PMS_P2;Temp;Humidity;BMP_temperature;BMP_pressure;BME280_temperature;BME280_humidity;BME280_pressure;Samples;Min_cycle;Max_cycle;Signal;HPM_P1;HPM_P2
2024/01/08 00:01:06;;;;;;;12.60;7.07;;;-7.10;99.90;;;;;;5011326;28;20172;-65
2024/01/08 00:03:31;;;;;;;9.57;5.70;;;-7.10;99.90;;;;;;4986495;28;20184;-62
2024/01/08 00:05:57;;;;;;;10.27;5.97;;;-7.20;99.90;;;;;;5008205;28;20207;-64
2024/01/08 00:08:22;;;;;;;9.10;5.50;;;-7.20;99.90;;;;;;4997796;28;20172;-64
2024/01/08 00:10:48;;;;;;;7.73;5.43;;;-7.20;99.90;;;;;;5002912;28;20256;-65
2024/01/08 00:13:13;;;;;;;11.60;6.27;;;-7.20;99.90;;;;;;5006200;28;20172;-64
2024/01/08 00:15:39;;;;;;;8.97;5.07;;;-7.20;99.90;;;;;;5007226;28;20283;-62
2024/01/08 00:18:05;;;;;;;10.67;6.07;;;-7.20;99.90;;;;;;5014489;28;20175;-63
2024/01/08 00:20:30;;;;;;;7.33;5.80;;;-7.20;99.90;;;;;;5010204;28;20180;-64
2024/01/08 00:22:56;;;;;;;9.70;7.13;;;-7.20;99.90;;;;;;5010293;28;20164;-63
2024/01/08 00:25:22;;;;;;;7.37;5.60;;;-7.30;99.90;;;;;;5009388;28;20196;-62
2024/01/08 00:27:49;;;;;;;9.10;5.47;;;-7.30;99.90;;;;;;5010228;28;20203;-64
2024/01/08 00:30:16;;;;;;;10.97;6.07;;;-7.30;99.90;;;;;;5013692;28;20175;-64
2024/01/08 00:32:42;;;;;;;8.40;4.90;;;-7.30;99.90;;;;;;5010212;28;20411;-64
2024/01/08 00:35:08;;;;;;;6.75;5.30;;;-7.40;99.90;;;;;;5017990;28;20900;-63
2024/01/08 00:37:35;;;;;;;5.70;5.17;;;-7.40;99.90;;;;;;5011669;28;20287;-64
2024/01/08 00:40:04;;;;;;;7.03;5.22;;;-7.40;99.90;;;;;;5006002;28;20426;-64
2024/01/08 00:42:30;;;;;;;5.25;4.50;;;-7.40;99.90;;;;;;5003149;28;20586;-64
2024/01/08 00:44:55;;;;;;;4.97;4.57;;;-7.40;99.90;;;;;;5009289;28;20259;-64
2024/01/08 00:47:22;;;;;;;7.10;4.78;;;-7.40;99.90;;;;;;5016071;28;20262;-64
2024/01/08 00:49:47;;;;;;;6.73;5.40;;;-7.40;99.90;;;;;;5016235;28;20298;-64
2024/01/08 00:52:13;;;;;;;7.00;4.70;;;-7.40;99.90;;;;;;5011262;28;20173;-64
2024/01/08 00:54:38;;;;;;;10.73;5.57;;;-7.40;99.90;;;;;;5010006;28;20248;-64
2024/01/08 00:57:04;;;;;;;9.07;5.03;;;-7.50;99.90;;;;;;5012156;28;20289;-63
2024/01/08 00:59:29;;;;;;;10.83;5.77;;;-7.50;99.90;;;;;;5010898;28;20639;-64
2024/01/08 01:01:57;;;;;;;15.53;6.13;;;-7.50;99.90;;;;;;5013408;28;20200;-63
2024/01/08 01:04:22;;;;;;;7.97;5.60;;;-7.50;99.90;;;;;;5014710;28;20192;-63
2024/01/08 01:06:48;;;;;;;9.00;5.83;;;-7.40;99.90;;;;;;5010296;28;20208;-63
2024/01/08 01:09:14;;;;;;;5.70;5.00;;;-7.50;99.90;;;;;;5013785;28;20234;-63
2024/01/08 01:11:39;;;;;;;8.70;5.07;;;-7.50;99.90;;;;;;5013885;28;20647;-62
2024/01/08 01:14:05;;;;;;;7.83;5.80;;;-7.50;99.90;;;;;;5021603;28;20192;-64
2024/01/08 01:16:32;;;;;;;8.60;4.60;;;-7.50;99.90;;;;;;5008127;28;20235;-64
2024/01/08 01:18:58;;;;;;;8.70;5.00;;;-7.50;99.90;;;;;;5011840;28;20180;-64
2024/01/08 01:21:23;;;;;;;9.90;6.23;;;-7.50;99.90;;;;;;5013561;28;20184;-64
2024/01/08 01:23:50;;;;;;;8.50;6.43;;;-7.50;99.90;;;;;;5012240;28;20180;-64
2024/01/08 01:26:17;;;;;;;8.93;6.68;;;-7.50;99.90;;;;;;5013397;28;20571;-63
2024/01/08 01:28:42;;;;;;;6.75;5.28;;;-7.40;99.90;;;;;;5013703;28;20196;-64
2024/01/08 01:31:11;;;;;;;6.30;5.20;;;-7.50;99.90;;;;;;5014158;28;20172;-61
2024/01/08 01:33:37;;;;;;;5.60;4.70;;;-7.50;99.90;;;;;;5008921;28;20179;-63
2024/01/08 01:36:03;;;;;;;10.03;5.60;;;-7.50;99.90;;;;;;5021429;28;20675;-64
2024/01/08 01:38:29;;;;;;;9.23;5.38;;;-7.40;99.90;;;;;;5023435;28;20195;-62
2024/01/08 01:40:55;;;;;;;9.07;5.37;;;-7.50;99.90;;;;;;5008742;28;20180;-64
2024/01/08 01:43:24;;;;;;;7.27;5.07;;;-7.40;99.90;;;;;;5015263;28;20187;-64
2024/01/08 01:45:54;;;;;;;8.40;6.85;;;-7.40;99.90;;;;;;5007593;28;20292;-64
2024/01/08 01:48:21;;;;;;;10.10;7.60;;;-7.40;99.90;;;;;;5018383;28;20176;-65
2024/01/08 01:50:47;;;;;;;8.48;5.10;;;-7.40;99.90;;;;;;5016210;28;20259;-65
2024/01/08 01:53:13;;;;;;;6.87;4.90;;;-7.40;99.90;;;;;;5012597;28;20627;-64
2024/01/08 01:55:40;;;;;;;6.77;6.10;;;-7.40;99.90;;;;;;5011595;28;20196;-64
2024/01/08 01:58:06;;;;;;;6.47;5.40;;;-7.40;99.90;;;;;;5015659;28;20184;-64
2024/01/08 02:00:33;;;;;;;8.27;5.60;;;-7.40;99.90;;;;;;5017338;28;20267;-65
2024/01/08 02:03:00;;;;;;;9.77;5.43;;;-7.40;99.90;;;;;;5011504;28;20192;-64
2024/01/08 02:05:26;;;;;;;7.07;5.50;;;-7.40;99.90;;;;;;5012928;28;20212;-65
2024/01/08 02:07:53;;;;;;;5.73;4.17;;;-7.40;99.90;;;;;;5013481;28;21099;-65
2024/01/08 02:10:19;;;;;;;7.15;4.60;;;-7.50;99.90;;;;;;5023289;28;20569;-64
2024/01/08 02:12:45;;;;;;;10.55;5.07;;;-7.40;99.90;;;;;;5012578;28;20172;-64
2024/01/08 02:15:10;;;;;;;8.53;6.50;;;-7.40;99.90;;;;;;5020340;28;20180;-64
2024/01/08 02:17:37;;;;;;;9.27;5.20;;;-7.40;99.90;;;;;;5012922;28;20177;-64
2024/01/08 02:20:04;;;;;;;8.10;5.03;;;-7.40;99.90;;;;;;5011454;28;20185;-63
2024/01/08 02:22:29;;;;;;;11.33;4.67;;;-7.40;99.90;;;;;;5012313;28;20476;-63
2024/01/08 02:24:55;;;;;;;5.53;4.23;;;-7.40;99.90;;;;;;5012857;28;20419;-64
2024/01/08 02:27:20;;;;;;;8.17;5.43;;;-7.40;99.90;;;;;;5019042;28;20196;-65
2024/01/08 02:29:46;;;;;;;7.90;4.23;;;-7.40;99.90;;;;;;5011532;28;20187;-64
2024/01/08 02:32:13;;;;;;;7.00;6.03;;;-7.40;99.90;;;;;;5015017;28;20171;-64
2024/01/08 02:34:39;;;;;;;5.57;4.88;;;-7.40;99.90;;;;;;5016762;28;20223;-64
2024/01/08 02:37:05;;;;;;;7.90;5.93;;;-7.40;99.90;;;;;;5014951;28;20752;-64
2024/01/08 02:39:30;;;;;;;9.97;6.87;;;-7.40;99.90;;;;;;5012137;28;20423;-63
2024/01/08 02:41:56;;;;;;;8.00;4.63;;;-7.40;99.90;;;;;;5011748;28;20492;-64
2024/01/08 02:44:22;;;;;;;9.67;5.43;;;-7.50;99.90;;;;;;5006126;28;20183;-64
2024/01/08 02:46:47;;;;;;;7.13;4.43;;;-7.50;99.90;;;;;;5008200;28;20266;-63
2024/01/08 02:49:13;;;;;;;10.90;4.60;;;-7.40;99.90;;;;;;5003800;28;20424;-64
2024/01/08 02:51:39;;;;;;;9.30;4.70;;;-7.40;99.90;;;;;;5010830;28;20177;-65
2024/01/08 02:54:04;;;;;;;7.43;5.50;;;-7.40;99.90;;;;;;5006035;28;20173;-63
2024/01/08 02:56:30;;;;;;;6.20;4.53;;;-7.40;99.90;;;;;;5011852;28;20291;-65
2024/01/08 02:58:56;;;;;;;7.60;5.47;;;-7.40;99.90;;;;;;5011142;28;20188;-63
2024/01/08 03:01:21;;;;;;;8.27;5.83;;;-7.40;99.90;;;;;;5011734;28;20540;-62
2024/01/08 03:03:47;;;;;;;11.27;6.23;;;-7.40;99.90;;;;;;5016761;28;20214;-64
2024/01/08 03:06:12;;;;;;;11.30;6.30;;;-7.40;99.90;;;;;;5009890;28;20287;-64
2024/01/08 03:08:38;;;;;;;7.00;4.90;;;-7.40;99.90;;;;;;5011171;28;20634;-64
2024/01/08 03:11:04;;;;;;;14.43;6.10;;;-7.40;99.90;;;;;;5009523;28;20259;-63
2024/01/08 03:13:29;;;;;;;5.50;4.77;;;-7.40;99.90;;;;;;5005183;28;20252;-64
2024/01/08 03:15:55;;;;;;;7.43;5.97;;;-7.40;99.90;;;;;;5021827;28;20519;-63
2024/01/08 03:18:20;;;;;;;4.80;4.40;;;-7.40;99.90;;;;;;5017391;28;20282;-64
2024/01/08 03:20:46;;;;;;;9.77;5.00;;;-7.40;99.90;;;;;;5017774;28;20187;-63
2024/01/08 03:23:12;;;;;;;12.43;5.87;;;-7.40;99.90;;;;;;5005278;28;20639;-63
2024/01/08 03:25:37;;;;;;;8.20;5.50;;;-7.30;99.90;;;;;;5011165;28;20260;-63
2024/01/08 03:28:03;;;;;;;10.93;7.63;;;-7.30;99.90;;;;;;5020311;28;20537;-63
2024/01/08 03:30:29;;;;;;;5.07;4.53;;;-7.30;99.90;;;;;;5010132;28;20615;-63
2024/01/08 03:32:54;;;;;;;7.30;4.87;;;-7.30;99.90;;;;;;5015652;28;20442;-63
2024/01/08 03:35:20;;;;;;;8.00;4.30;;;-7.30;99.90;;;;;;5013992;28;20286;-63
2024/01/08 03:37:46;;;;;;;4.90;4.47;;;-7.30;99.90;;;;;;5007793;28;20318;-64
2024/01/08 03:40:12;;;;;;;6.47;4.77;;;-7.30;99.90;;;;;;5014556;28;20431;-64
2024/01/08 03:42:37;;;;;;;4.67;3.90;;;-7.30;99.90;;;;;;5015117;28;20709;-63
2024/01/08 03:45:03;;;;;;;6.30;3.80;;;-7.40;99.90;;;;;;5002757;28;20789;-63
2024/01/08 03:47:29;;;;;;;10.63;6.03;;;-7.40;99.90;;;;;;5001738;28;20201;-63
2024/01/08 03:49:55;;;;;;;6.20;4.00;;;-7.40;99.90;;;;;;5012773;28;20175;-64
2024/01/08 03:52:22;;;;;;;10.07;5.30;;;-7.40;99.90;;;;;;5009684;28;20654;-64
2024/01/08 03:54:48;;;;;;;6.47;4.77;;;-7.40;99.90;;;;;;5009785;28;20874;-64
2024/01/08 03:57:14;;;;;;;7.23;4.63;;;-7.40;99.90;;;;;;5008911;28;20431;-63
2024/01/08 03:59:41;;;;;;;10.20;5.97;;;-7.40;99.90;;;;;;5010472;28;20411;-63
2024/01/08 04:02:06;;;;;;;6.10;5.50;;;-7.40;99.90;;;;;;5019805;28;20219;-63
2024/01/08 04:04:32;;;;;;;9.43;5.43;;;-7.40;99.90;;;;;;5010378;28;20212;-64
2024/01/08 04:06:57;;;;;;;6.50;5.87;;;-7.40;99.90;;;;;;5009932;28;20199;-64
2024/01/08 04:09:23;;;;;;;7.10;4.37;;;-7.40;99.90;;;;;;5006318;28;20215;-64
2024/01/08 04:11:49;;;;;;;7.83;5.00;;;-7.40;99.90;;;;;;5004671;28;20199;-64
2024/01/08 04:14:14;;;;;;;11.33;6.60;;;-7.40;99.90;;;;;;5016703;28;20218;-64
2024/01/08 04:16:40;;;;;;;6.47;4.47;;;-7.40;99.90;;;;;;5010323;28;20701;-63
2024/01/08 04:19:06;;;;;;;9.80;5.03;;;-7.40;99.90;;;;;;5009987;28;20187;-64
2024/01/08 04:21:32;;;;;;;11.20;5.50;;;-7.50;99.90;;;;;;5010219;28;20501;-64
2024/01/08 04:23:58;;;;;;;6.40;5.17;;;-7.50;99.90;;;;;;5008063;28;20227;-64
2024/01/08 04:26:25;;;;;;;6.13;4.47;;;-7.40;99.90;;;;;;5003828;28;20217;-64
2024/01/08 04:28:51;;;;;;;7.57;4.55;;;-7.50;99.90;;;;;;5010375;28;20179;-64
2024/01/08 04:31:18;;;;;;;9.30;4.50;;;-7.50;99.90;;;;;;5010363;28;20271;-64
2024/01/08 04:33:44;;;;;;;6.28;5.47;;;-7.50;99.90;;;;;;5010088;28;20207;-64
2024/01/08 04:36:09;;;;;;;5.60;4.50;;;-7.50;99.90;;;;;;5010019;28;20200;-64
2024/01/08 04:38:35;;;;;;;5.00;4.60;;;-7.50;99.90;;;;;;5009686;28;20578;-64
2024/01/08 04:41:01;;;;;;;7.55;5.50;;;-7.50;99.90;;;;;;5010490;28;20207;-62
2024/01/08 04:43:26;;;;;;;7.47;6.10;;;-7.50;99.90;;;;;;5010813;28;20180;-63
2024/01/08 04:45:52;;;;;;;7.60;4.80;;;-7.50;99.90;;;;;;5016068;28;20241;-63
2024/01/08 04:48:18;;;;;;;5.23;4.30;;;-7.50;99.90;;;;;;5013755;28;20195;-63
2024/01/08 04:50:43;;;;;;;9.37;6.63;;;-7.50;99.90;;;;;;5020902;28;20183;-64
2024/01/08 04:53:09;;;;;;;5.93;4.53;;;-7.50;99.90;;;;;;5013047;28;20670;-63
2024/01/08 04:55:34;;;;;;;5.73;5.20;;;-7.50;99.90;;;;;;5007740;28;20192;-63
2024/01/08 04:58:00;;;;;;;6.67;5.30;;;-7.50;99.90;;;;;;5011379;28;20229;-64
2024/01/08 05:00:26;;;;;;;6.60;4.23;;;-7.50;99.90;;;;;;5012966;28;20172;-64
2024/01/08 05:02:51;;;;;;;6.00;4.60;;;-7.50;99.90;;;;;;5021160;28;20180;-64
2024/01/08 05:05:17;;;;;;;8.67;6.73;;;-7.50;99.90;;;;;;5017147;28;20295;-63
2024/01/08 05:07:42;;;;;;;10.83;5.43;;;-7.50;99.90;;;;;;5013382;28;20200;-63
2024/01/08 05:10:08;;;;;;;9.23;5.87;;;-7.50;99.90;;;;;;5009977;28;20489;-64
2024/01/08 05:12:34;;;;;;;8.70;5.17;;;-7.50;99.90;;;;;;5010993;28;20279;-63
2024/01/08 05:15:00;;;;;;;6.57;4.37;;;-7.50;99.90;;;;;;5010766;28;20608;-64
2024/01/08 05:17:25;;;;;;;7.00;4.40;;;-7.50;99.90;;;;;;5020459;28;20185;-63
2024/01/08 05:19:52;;;;;;;6.10;4.63;;;-7.50;99.90;;;;;;5012743;28;20565;-63
2024/01/08 05:22:18;;;;;;;7.30;5.88;;;-7.50;99.90;;;;;;5008935;28;20840;-63
2024/01/08 05:24:45;;;;;;;5.30;4.70;;;-7.50;99.90;;;;;;5013510;28;20184;-63
2024/01/08 05:27:10;;;;;;;6.32;5.38;;;-7.50;99.90;;;;;;5012669;28;20465;-63
2024/01/08 05:29:36;;;;;;;9.03;4.67;;;-7.50;99.90;;;;;;5013044;28;20180;-63
2024/01/08 05:32:02;;;;;;;8.27;6.80;;;-7.50;99.90;;;;;;5011914;28;20414;-63
2024/01/08 05:34:28;;;;;;;12.53;7.20;;;-7.50;99.90;;;;;;5007635;28;20181;-59
2024/01/08 05:36:53;;;;;;;6.63;4.60;;;-7.50;99.90;;;;;;5011964;28;20442;-64
2024/01/08 05:39:19;;;;;;;5.50;4.53;;;-7.50;99.90;;;;;;5012771;28;20598;-64
2024/01/08 05:41:45;;;;;;;7.30;4.50;;;-7.50;99.90;;;;;;5016209;28;20172;-63
2024/01/08 05:44:11;;;;;;;7.40;4.82;;;-7.50;99.90;;;;;;5013210;28;20235;-63
2024/01/08 05:46:43;;;;;;;7.80;4.90;;;-7.50;99.90;;;;;;5012478;28;20581;-62
2024/01/08 05:49:09;;;;;;;13.02;5.30;;;-7.50;99.90;;;;;;5013846;28;20204;-64
2024/01/08 05:51:36;;;;;;;9.07;5.50;;;-7.50;99.90;;;;;;5011308;28;20242;-64
2024/01/08 05:54:02;;;;;;;8.82;5.15;;;-7.50;99.90;;;;;;5013153;28;20422;-63
2024/01/08 05:56:28;;;;;;;7.82;5.03;;;-7.50;99.90;;;;;;5030107;28;20671;-63
2024/01/08 05:58:54;;;;;;;4.77;4.27;;;-7.50;99.90;;;;;;5017082;28;20177;-64
2024/01/08 06:01:20;;;;;;;8.13;5.60;;;-7.50;99.90;;;;;;5013805;28;20234;-63
2024/01/08 06:03:46;;;;;;;10.15;5.55;;;-7.60;99.90;;;;;;5011856;28;20258;-64
2024/01/08 06:06:12;;;;;;;12.23;6.10;;;-7.60;99.90;;;;;;5010093;28;20522;-64
2024/01/08 06:08:40;;;;;;;8.25;6.10;;;-7.60;99.90;;;;;;5012017;28;20216;-64
2024/01/08 06:11:06;;;;;;;8.75;5.97;;;-7.60;99.90;;;;;;5009498;28;20486;-63
2024/01/08 06:13:32;;;;;;;9.77;6.85;;;-7.60;99.90;;;;;;5021203;28;20168;-64
2024/01/08 06:15:58;;;;;;;9.13;7.30;;;-7.60;99.90;;;;;;5011879;28;20554;-64
2024/01/08 06:18:24;;;;;;;8.23;6.20;;;-7.60;99.90;;;;;;5014402;28;20451;-64
2024/01/08 06:20:50;;;;;;;5.28;3.88;;;-7.60;99.90;;;;;;5009291;28;20173;-63
2024/01/08 06:23:16;;;;;;;10.15;6.50;;;-7.60;99.90;;;;;;5010322;28;20187;-64
2024/01/08 06:25:42;;;;;;;6.37;5.77;;;-7.60;99.90;;;;;;5011897;28;20288;-64
2024/01/08 06:28:08;;;;;;;7.07;5.20;;;-7.60;99.90;;;;;;5013969;28;20176;-64
2024/01/08 06:30:33;;;;;;;10.33;6.90;;;-7.60;99.90;;;;;;5018067;28;20180;-64
2024/01/08 06:32:59;;;;;;;11.23;5.27;;;-7.60;99.90;;;;;;5017250;28;20173;-64
2024/01/08 06:35:25;;;;;;;14.87;6.30;;;-7.60;99.90;;;;;;5015781;28;20626;-64
2024/01/08 06:37:50;;;;;;;9.03;6.53;;;-7.60;99.90;;;;;;5017604;28;20294;-64
2024/01/08 06:40:16;;;;;;;8.77;6.70;;;-7.60;99.90;;;;;;5008176;28;20694;-64
2024/01/08 06:42:42;;;;;;;5.47;4.40;;;-7.60;99.90;;;;;;5012851;28;20176;-63
2024/01/08 06:45:08;;;;;;;9.45;5.72;;;-7.60;99.90;;;;;;5010226;28;20558;-64
2024/01/08 06:47:34;;;;;;;14.40;7.10;;;-7.60;99.90;;;;;;5011921;28;20200;-64
2024/01/08 06:49:59;;;;;;;7.20;6.20;;;-7.60;99.90;;;;;;5009829;28;20431;-64
2024/01/08 06:52:25;;;;;;;9.17;5.97;;;-7.60;99.90;;;;;;5011082;28;20183;-64
2024/01/08 06:54:51;;;;;;;10.03;5.73;;;-7.60;99.90;;;;;;5011681;28;20501;-63
2024/01/08 06:57:17;;;;;;;9.73;6.78;;;-7.60;99.90;;;;;;5007057;28;20212;-64
2024/01/08 06:59:42;;;;;;;9.40;5.60;;;-7.60;99.90;;;;;;5014187;28;20184;-64
2024/01/08 07:02:08;;;;;;;12.67;5.70;;;-7.60;99.90;;;;;;5010875;28;20176;-62
2024/01/08 07:04:33;;;;;;;8.10;4.67;;;-7.60;99.90;;;;;;5015797;28;20179;-64
2024/01/08 07:06:59;;;;;;;11.00;6.40;;;-7.60;99.90;;;;;;5013840;28;20745;-64
2024/01/08 07:09:25;;;;;;;5.47;4.90;;;-7.60;99.90;;;;;;5010475;28;20184;-64
2024/01/08 07:11:51;;;;;;;9.75;6.43;;;-7.60;99.90;;;;;;5011474;28;20187;-63
2024/01/08 07:14:17;;;;;;;6.87;4.70;;;-7.60;99.90;;;;;;5011432;28;20188;-64
2024/01/08 07:16:42;;;;;;;11.50;7.40;;;-7.50;99.90;;;;;;5023073;28;20461;-64
2024/01/08 07:19:08;;;;;;;14.20;5.83;;;-7.50;99.90;;;;;;5018738;28;20176;-63
2024/01/08 07:21:34;;;;;;;5.10;4.00;;;-7.50;99.90;;;;;;5022588;28;20670;-64
2024/01/08 07:23:59;;;;;;;9.47;7.60;;;-7.50;99.90;;;;;;5008940;28;20621;-61
2024/01/08 07:26:25;;;;;;;11.97;6.50;;;-7.50;99.90;;;;;;5008412;28;20242;-64
2024/01/08 07:28:51;;;;;;;10.37;6.17;;;-7.50;99.90;;;;;;5009148;28;20268;-64
2024/01/08 07:31:16;;;;;;;7.70;5.97;;;-7.50;99.90;;;;;;5010633;28;20195;-64
2024/01/08 07:33:42;;;;;;;11.17;6.03;;;-7.50;99.90;;;;;;5015820;28;20643;-63
2024/01/08 07:36:08;;;;;;;8.87;5.87;;;-7.50;99.90;;;;;;5013859;28;20204;-64
2024/01/08 07:38:34;;;;;;;9.63;6.65;;;-7.50;99.90;;;;;;5014290;28;20198;-64
2024/01/08 07:41:00;;;;;;;8.17;5.67;;;-7.50;99.90;;;;;;5010026;28;20176;-64
2024/01/08 07:43:26;;;;;;;9.50;6.50;;;-7.40;99.90;;;;;;5008043;28;20240;-64
2024/01/08 07:45:52;;;;;;;15.67;6.20;;;-7.40;99.90;;;;;;5006388;28;20768;-63
2024/01/08 07:48:18;;;;;;;9.18;5.80;;;-7.50;99.90;;;;;;5013841;28;20425;-64
2024/01/08 07:50:48;;;;;;;7.60;6.00;;;-7.40;99.90;;;;;;5013780;28;20175;-62
2024/01/08 07:53:16;;;;;;;7.57;5.60;;;-7.30;99.90;;;;;;5008532;28;20447;-64
2024/01/08 07:55:42;;;;;;;11.60;6.93;;;-7.40;99.90;;;;;;5003639;28;20204;-64
2024/01/08 07:58:09;;;;;;;10.20;5.83;;;-7.30;99.90;;;;;;5010351;28;20191;-62
2024/01/08 08:00:35;;;;;;;13.10;8.25;;;-7.40;99.90;;;;;;5002187;28;20415;-64
2024/01/08 08:03:01;;;;;;;10.10;7.30;;;-7.30;99.90;;;;;;5013022;28;20635;-64
2024/01/08 08:05:26;;;;;;;13.20;7.10;;;-7.30;99.90;;;;;;5009062;28;20220;-64
2024/01/08 08:07:52;;;;;;;8.97;5.17;;;-7.30;99.90;;;;;;5008435;28;20255;-64
2024/01/08 08:10:18;;;;;;;10.77;7.67;;;-7.30;99.90;;;;;;5009946;28;20176;-65
2024/01/08 08:12:43;;;;;;;8.20;6.22;;;-7.30;99.90;;;;;;5011416;28;20311;-64
2024/01/08 08:15:10;;;;;;;9.47;6.00;;;-7.30;99.90;;;;;;5008532;28;20617;-64
2024/01/08 08:17:40;;;;;;;7.18;6.50;;;-7.30;99.90;;;;;;5006354;28;20241;-63
2024/01/08 08:20:06;;;;;;;10.00;7.47;;;-7.20;99.90;;;;;;5012498;28;20226;-64
2024/01/08 08:22:32;;;;;;;12.73;6.22;;;-7.20;99.90;;;;;;5011264;28;20172;-66
2024/01/08 08:24:57;;;;;;;14.20;8.47;;;-7.20;99.90;;;;;;5014714;28;20172;-62
2024/01/08 08:27:23;;;;;;;11.20;5.40;;;-7.10;99.90;;;;;;5014357;28;20183;-64
2024/01/08 08:29:49;;;;;;;10.80;7.53;;;-7.10;99.90;;;;;;5013848;28;20615;-63
2024/01/08 08:32:15;;;;;;;10.20;6.07;;;-7.10;99.90;;;;;;5014601;28;20259;-65
2024/01/08 08:34:40;;;;;;;9.53;6.90;;;-7.00;99.90;;;;;;5014999;28;20481;-68
2024/01/08 08:37:09;;;;;;;9.70;6.23;;;-7.00;99.90;;;;;;5012846;28;20516;-66
2024/01/08 08:39:36;;;;;;;9.57;6.87;;;-6.80;99.90;;;;;;5015482;28;20595;-64
2024/01/08 08:42:03;;;;;;;8.20;6.10;;;-6.70;99.90;;;;;;5014198;28;20522;-64
2024/01/08 08:44:28;;;;;;;15.90;6.07;;;-6.60;99.90;;;;;;5011623;28;20176;-65
2024/01/08 08:46:54;;;;;;;9.90;5.93;;;-6.40;99.90;;;;;;5013856;28;20461;-64
2024/01/08 08:49:20;;;;;;;10.60;6.47;;;-6.30;99.90;;;;;;5019703;28;20176;-65
2024/01/08 08:51:46;;;;;;;12.60;7.17;;;-6.20;99.90;;;;;;5014186;28;20215;-64
2024/01/08 08:54:12;;;;;;;10.33;5.90;;;-6.20;99.90;;;;;;5007322;28;20842;-64
2024/01/08 08:56:38;;;;;;;12.00;6.97;;;-6.20;99.90;;;;;;5009826;28;20602;-64
2024/01/08 08:59:04;;;;;;;9.00;6.77;;;-6.20;99.90;;;;;;5013823;28;20403;-65
2024/01/08 09:01:30;;;;;;;11.73;5.60;;;-5.80;99.90;;;;;;5013910;28;20418;-66
2024/01/08 09:03:55;;;;;;;7.97;5.67;;;-5.90;99.90;;;;;;5013647;28;20169;-63
2024/01/08 09:06:24;;;;;;;9.70;6.77;;;-5.70;99.90;;;;;;5008352;28;20447;-64
2024/01/08 09:08:53;;;;;;;8.07;6.00;;;-5.50;99.90;;;;;;5006233;28;21090;-64
2024/01/08 09:11:20;;;;;;;6.33;5.77;;;-5.80;99.90;;;;;;5014768;28;20501;-64
2024/01/08 09:13:46;;;;;;;10.87;6.90;;;-6.00;99.90;;;;;;5022032;28;20406;-64
2024/01/08 09:16:14;;;;;;;8.07;5.57;;;-6.00;99.90;;;;;;5012788;28;20465;-64
2024/01/08 09:18:40;;;;;;;6.20;5.60;;;-6.10;99.90;;;;;;5013426;28;20470;-64
2024/01/08 09:21:12;;;;;;;14.00;6.27;;;-6.10;99.90;;;;;;5015606;28;20419;-64
2024/01/08 09:23:40;;;;;;;8.40;5.67;;;-6.10;99.90;;;;;;5005353;28;20438;-66
2024/01/08 09:26:05;;;;;;;11.37;5.73;;;-6.20;99.90;;;;;;5011374;28;20447;-64
2024/01/08 09:28:32;;;;;;;6.63;4.70;;;-6.20;99.90;;;;;;5009177;28;20412;-65
2024/01/08 09:31:00;;;;;;;6.97;4.90;;;-6.10;99.90;;;;;;5013561;28;20196;-62
2024/01/08 09:33:26;;;;;;;8.07;5.77;;;-6.20;99.90;;;;;;5011241;28;20919;-65
2024/01/08 09:35:51;;;;;;;7.00;4.80;;;-6.20;99.90;;;;;;5013538;28;20435;-65
2024/01/08 09:38:17;;;;;;;8.50;5.43;;;-6.20;99.90;;;;;;5011197;28;20260;-65
2024/01/08 09:40:43;;;;;;;13.83;5.70;;;-6.20;99.90;;;;;;5004462;28;20471;-64
2024/01/08 09:43:14;;;;;;;7.57;5.30;;;-6.30;99.90;;;;;;4992385;28;20181;-65
2024/01/08 09:45:49;;;;;;;7.35;6.60;;;-6.20;99.90;;;;;;5000254;28;20941;-65
2024/01/08 09:48:16;;;;;;;8.00;4.93;;;-6.20;99.90;;;;;;5000860;28;20173;-65
2024/01/08 09:50:42;;;;;;;7.83;6.07;;;-6.20;99.90;;;;;;5002053;28;20465;-65
2024/01/08 09:53:08;;;;;;;10.23;5.30;;;-6.10;99.90;;;;;;5004979;28;20431;-64
2024/01/08 09:55:34;;;;;;;8.77;5.17;;;-6.10;99.90;;;;;;5003209;28;20454;-65
2024/01/08 09:58:01;;;;;;;4.23;3.83;;;-6.10;99.90;;;;;;5001682;28;20193;-64
2024/01/08 10:00:26;;;;;;;5.20;4.57;;;-6.10;99.90;;;;;;5004770;28;21026;-67
2024/01/08 10:02:56;;;;;;;8.30;5.90;;;-6.00;99.90;;;;;;5003507;28;20411;-66
2024/01/08 10:05:22;;;;;;;8.53;5.00;;;-5.90;99.90;;;;;;5009146;28;20196;-64
2024/01/08 10:07:47;;;;;;;8.40;5.73;;;-5.80;99.90;;;;;;5001371;28;20428;-67
2024/01/08 10:10:13;;;;;;;6.77;4.73;;;-5.90;99.90;;;;;;4995676;28;20555;-66
2024/01/08 10:12:42;;;;;;;6.50;4.53;;;-5.80;99.90;;;;;;5001307;28;20172;-66
2024/01/08 10:15:10;;;;;;;6.60;4.53;;;-5.80;99.90;;;;;;5001334;28;20587;-65
2024/01/08 10:17:36;;;;;;;6.87;4.37;;;-5.70;99.90;;;;;;5003864;28;20545;-68
2024/01/08 10:20:08;;;;;;;7.03;4.83;;;-5.70;99.90;;;;;;5001358;28;20514;-67
2024/01/08 10:22:34;;;;;;;14.57;4.83;;;-5.50;99.90;;;;;;4998704;28;20189;-64
2024/01/08 10:25:06;;;;;;;6.27;4.40;;;-5.50;99.90;;;;;;4996684;28;20423;-64
2024/01/08 10:27:31;;;;;;;5.23;3.30;;;-5.60;99.90;;;;;;4997375;28;20177;-64
2024/01/08 10:29:57;;;;;;;9.07;4.40;;;-5.60;99.90;;;;;;4997417;28;20490;-65
2024/01/08 10:32:23;;;;;;;8.10;7.23;;;-5.60;99.90;;;;;;5000753;28;20188;-61
2024/01/08 10:34:52;;;;;;;6.27;4.10;;;-5.70;99.90;;;;;;5004272;28;20616;-67
2024/01/08 10:37:21;;;;;;;5.47;3.03;;;-5.50;99.90;;;;;;4999107;28;20464;-62
2024/01/08 10:39:49;;;;;;;5.10;4.60;;;-5.60;99.90;;;;;;5000353;28;20413;-63
2024/01/08 10:42:15;;;;;;;6.13;5.30;;;-5.50;99.90;;;;;;4993556;28;20416;-65
2024/01/08 10:44:41;;;;;;;7.73;5.60;;;-5.50;99.90;;;;;;5001733;28;20464;-65
2024/01/08 10:47:10;;;;;;;7.43;4.00;;;-5.50;99.90;;;;;;4999424;28;20444;-67
2024/01/08 10:49:38;;;;;;;4.90;4.20;;;-5.40;99.90;;;;;;5009408;28;20660;-70
2024/01/08 10:52:24;;;;;;;6.40;4.53;;;-5.40;99.90;;;;;;5002750;28;20422;-62
2024/01/08 10:54:58;;;;;;;8.57;4.67;;;-5.40;99.90;;;;;;4996110;28;20423;-67
2024/01/08 10:57:56;;;;;;;13.13;7.20;;;-5.30;99.90;;;;;;4998817;28;20747;-68
2024/01/08 11:00:23;;;;;;;4.20;3.80;;;-4.70;99.90;;;;;;4996749;28;20922;-63
2024/01/08 11:02:49;;;;;;;6.53;5.03;;;-5.00;99.90;;;;;;5000191;28;20407;-65
2024/01/08 11:05:17;;;;;;;7.73;4.83;;;-5.00;99.90;;;;;;4998884;28;20479;-65
2024/01/08 11:07:46;;;;;;;7.33;4.80;;;-5.00;99.90;;;;;;5001170;28;20407;-64
2024/01/08 11:10:12;;;;;;;6.70;4.60;;;-5.00;99.90;;;;;;4996176;28;20939;-64
2024/01/08 11:12:50;;;;;;;4.23;3.83;;;-4.90;99.90;;;;;;4994289;28;20421;-63
2024/01/08 11:15:17;;;;;;;6.77;4.90;;;-5.00;99.90;;;;;;4997643;28;20567;-65
2024/01/08 11:17:50;;;;;;;3.67;3.13;;;-5.00;99.90;;;;;;5000284;28;20455;-64
2024/01/08 11:20:43;;;;;;;4.97;3.60;;;-4.90;99.90;;;;;;4996001;28;20411;-64
2024/01/08 11:23:33;;;;;;;8.03;4.60;;;-4.90;99.90;;;;;;5001734;28;20500;-64
2024/01/08 11:26:04;;;;;;;8.07;5.10;;;-4.90;99.90;;;;;;4998893;28;20736;-62
2024/01/08 11:28:31;;;;;;;4.50;3.73;;;-4.90;99.90;;;;;;4993664;28;20412;-63
2024/01/08 11:31:30;;;;;;;4.43;2.90;;;-4.80;99.90;;;;;;5000681;28;20440;-66
2024/01/08 11:34:38;;;;;;;5.37;4.30;;;-4.70;99.90;;;;;;4976260;28;20427;-65
2024/01/08 11:37:19;;;;;;;4.40;3.57;;;-4.70;99.90;;;;;;5001095;28;20502;-65
2024/01/08 11:39:44;;;;;;;4.27;3.87;;;-4.60;99.90;;;;;;5005621;28;20403;-65
2024/01/08 11:42:10;;;;;;;6.83;4.60;;;-4.70;99.90;;;;;;4998934;28;20485;-65
2024/01/08 11:44:36;;;;;;;3.90;3.57;;;-4.70;99.90;;;;;;4996428;28;20185;-65
2024/01/08 11:47:03;;;;;;;5.93;3.67;;;-4.60;99.90;;;;;;5002943;28;20467;-64
2024/01/08 11:49:28;;;;;;;15.83;4.33;;;-4.60;99.90;;;;;;4997209;28;20215;-65
2024/01/08 11:51:59;;;;;;;4.27;3.37;;;-4.60;99.90;;;;;;5009437;28;20909;-63
2024/01/08 11:54:26;;;;;;;5.80;3.27;;;-4.50;99.90;;;;;;5008313;28;20192;-73
2024/01/08 11:56:52;;;;;;;5.80;4.27;;;-4.50;99.90;;;;;;5008189;28;20462;-65
2024/01/08 11:59:30;;;;;;;5.90;4.20;;;-4.50;99.90;;;;;;5009201;28;20438;-64
2024/01/08 12:02:16;;;;;;;7.63;4.00;;;-4.50;99.90;;;;;;5004670;28;20426;-65
2024/01/08 12:04:43;;;;;;;5.00;4.50;;;-4.50;99.90;;;;;;5010606;28;20559;-65
2024/01/08 12:07:11;;;;;;;7.00;4.67;;;-4.50;99.90;;;;;;5012738;28;20443;-64
2024/01/08 12:09:37;;;;;;;4.13;3.73;;;-4.50;99.90;;;;;;5009677;28;20430;-65
2024/01/08 12:12:04;;;;;;;6.80;3.40;;;-4.50;99.90;;;;;;5010329;28;20461;-65
2024/01/08 12:14:32;;;;;;;4.20;3.80;;;-4.40;99.90;;;;;;5011564;28;20180;-65
2024/01/08 12:16:57;;;;;;;5.03;3.57;;;-4.40;99.90;;;;;;5013475;28;20771;-64
2024/01/08 12:19:41;;;;;;;4.30;3.63;;;-4.40;99.90;;;;;;5010189;28;20753;-63
2024/01/08 12:22:12;;;;;;;4.43;3.70;;;-4.50;99.90;;;;;;5005078;28;20404;-65
2024/01/08 12:24:42;;;;;;;3.63;3.20;;;-4.50;99.90;;;;;;5017768;28;20733;-65
2024/01/08 12:27:09;;;;;;;4.80;2.83;;;-4.40;99.90;;;;;;5010192;28;20447;-64
2024/01/08 12:29:41;;;;;;;4.23;3.47;;;-4.40;99.90;;;;;;5007384;28;20442;-65
2024/01/08 12:32:13;;;;;;;5.00;3.40;;;-4.40;99.90;;;;;;5014714;28;20514;-64
2024/01/08 12:34:39;;;;;;;5.60;4.20;;;-4.30;99.90;;;;;;5005617;28;20438;-64
2024/01/08 12:37:10;;;;;;;8.80;4.93;;;-4.30;99.90;;;;;;5009418;28;20463;-65
2024/01/08 12:39:38;;;;;;;4.77;3.93;;;-4.30;99.90;;;;;;5013610;28;20450;-63
2024/01/08 12:42:16;;;;;;;6.47;2.90;;;-4.20;99.90;;;;;;5009878;28;20514;-71
2024/01/08 12:44:50;;;;;;;6.10;3.30;;;-4.20;99.90;;;;;;5009686;28;20462;-70